Airport Name : New River MCAS

Other Name : New River MCAS

ICAO : KNCA

IATA :

FAA : NCA

Latitude : 34.708417

Longitude : -77.439667

Country : United States

Local Date and Time : 28 Oct 2020 15:55

 

TAF (Terminal Aerodrome Forecast)

TAF KNCA 2815/2915 21005KT 9999 SCT150 QNH3004INS BECMG 2822/2900 18005KT 9999 SCT030 BKN100 QNH3004INS FM290200 18005KT 9999 SCT030 BKN060 QNH2992INS BECMG 2910/2912 18010KT 9999 BKN015 OVC030 QNH2984INS T28/2819Z T19/2909Z

 

METAR (METeorological Aerodrome Report)

KNCA 281856Z 12006KT 10SM SCT035 BKN150 26/18 A3006 RMK AO2 SLP181 T02610178

KNCA 281756Z 07005KT 10SM SCT034 BKN150 25/17 A3008 RMK AO2 SLP188 T02500172 10261 20144 58024

KNCA 281656Z VRB04KT 10SM FEW031 26/18 A3011 RMK AO2 SLP197 T02610178

KNCA 281556Z 21005KT 10SM FEW035 SCT150 25/17 A3014 RMK AO2 SLP208 T02500167

To Charter a Jet Click here.